Time;durP1;ratioP1;P1;durP2;ratioP2;P2;SDS_P1;SDS_P2;PMS_P1;PMS_P2;Temp;Humidity;BMP_temperature;BMP_pressure;BME280_temperature;BME280_humidity;BME280_pressure;Samples;Min_cycle;Max_cycle;Signal;HPM_P1;HPM_P2
2021/05/20 00:00:09;;;;;;;1.15;0.40;;;9.80;99.90;;;;;;5030062;28;20431;-68
2021/05/20 00:03:14;;;;;;;1.02;0.45;;;9.50;99.90;;;;;;5030095;28;20037;-69
2021/05/20 00:06:18;;;;;;;2.55;0.57;;;9.20;99.90;;;;;;5030406;28;20038;-68
2021/05/20 00:09:22;;;;;;;0.90;0.68;;;8.90;99.90;;;;;;5029415;28;20052;-68
2021/05/20 00:12:26;;;;;;;6.75;0.50;;;8.90;99.90;;;;;;5029590;28;20049;-69
2021/05/20 00:15:30;;;;;;;2.53;0.90;;;8.90;99.90;;;;;;5018102;28;20519;-68
2021/05/20 00:18:35;;;;;;;0.77;0.40;;;8.90;99.90;;;;;;5030435;28;20045;-68
2021/05/20 00:21:39;;;;;;;3.63;0.80;;;8.90;99.90;;;;;;5029643;28;20048;-68
2021/05/20 00:24:42;;;;;;;3.03;0.80;;;8.90;99.90;;;;;;5029125;28;20037;-68
2021/05/20 00:27:46;;;;;;;1.10;0.90;;;8.80;99.90;;;;;;5030438;28;20033;-68
2021/05/20 00:30:51;;;;;;;5.65;1.00;;;8.70;99.90;;;;;;5029804;28;20057;-68
2021/05/20 00:33:55;;;;;;;2.05;1.00;;;8.60;99.90;;;;;;5010564;28;20512;-68
2021/05/20 00:36:59;;;;;;;10.07;0.88;;;8.60;99.90;;;;;;5010522;28;20057;-68
2021/05/20 00:40:04;;;;;;;1.40;0.93;;;8.60;99.90;;;;;;5008988;28;20056;-69
2021/05/20 00:43:09;;;;;;;1.55;0.77;;;8.60;99.90;;;;;;5010022;28;20056;-68
2021/05/20 00:46:13;;;;;;;3.78;0.88;;;8.60;99.90;;;;;;5010819;28;20038;-69
2021/05/20 00:49:18;;;;;;;3.20;1.50;;;8.60;99.90;;;;;;5010006;28;20374;-68
2021/05/20 00:52:23;;;;;;;1.60;0.70;;;8.60;99.90;;;;;;5010784;28;20053;-69
2021/05/20 00:55:31;;;;;;;3.08;0.70;;;8.50;99.90;;;;;;5028909;28;20404;-68
2021/05/20 00:58:35;;;;;;;0.63;0.57;;;8.40;99.90;;;;;;5030642;28;20054;-68
2021/05/20 01:01:39;;;;;;;1.38;0.57;;;8.40;99.90;;;;;;5029389;28;20046;-68
2021/05/20 01:04:43;;;;;;;3.42;0.70;;;8.40;99.90;;;;;;5030160;28;20338;-68
2021/05/20 01:07:48;;;;;;;2.13;0.70;;;8.40;99.90;;;;;;5030073;28;20499;-68
2021/05/20 01:10:53;;;;;;;2.33;0.60;;;8.30;99.90;;;;;;5029603;28;20407;-69
2021/05/20 01:13:57;;;;;;;4.05;0.80;;;8.30;99.90;;;;;;5025505;28;20045;-68
2021/05/20 01:17:02;;;;;;;3.55;0.80;;;8.30;99.90;;;;;;5026479;28;20045;-68
2021/05/20 01:20:07;;;;;;;2.53;0.65;;;8.30;99.90;;;;;;4997351;28;20431;-68
2021/05/20 01:23:17;;;;;;;1.15;0.50;;;8.40;99.90;;;;;;5024238;28;20052;-68
2021/05/20 01:26:22;;;;;;;3.30;0.80;;;8.40;99.90;;;;;;5033852;28;20034;-68
2021/05/20 01:29:26;;;;;;;1.10;0.68;;;8.40;99.90;;;;;;5033677;28;20025;-68
2021/05/20 01:32:30;;;;;;;1.30;0.77;;;8.40;99.90;;;;;;5013754;28;20042;-69
2021/05/20 01:35:35;;;;;;;2.38;0.70;;;8.30;99.90;;;;;;5013764;28;20072;-68
2021/05/20 01:41:43;;;;;;;3.20;0.60;;;8.30;99.90;;;;;;5012694;28;20052;-68
2021/05/20 01:44:47;;;;;;;1.92;0.98;;;8.20;99.90;;;;;;5012072;28;20539;-68
2021/05/20 01:47:51;;;;;;;3.90;1.23;;;8.30;99.90;;;;;;5019492;28;20045;-68
2021/05/20 01:51:06;;;;;;;2.00;0.60;;;8.30;99.90;;;;;;5032779;28;20040;-68
2021/05/20 01:54:10;;;;;;;1.33;0.60;;;8.30;99.90;;;;;;5019428;28;20049;-68
2021/05/20 01:57:15;;;;;;;1.95;0.70;;;8.30;99.90;;;;;;5032775;28;20507;-69
2021/05/20 02:00:19;;;;;;;1.02;0.60;;;8.30;99.90;;;;;;5031917;28;20041;-68
2021/05/20 02:03:24;;;;;;;0.80;0.47;;;8.30;99.90;;;;;;5031994;28;20045;-68
2021/05/20 02:06:28;;;;;;;1.40;0.45;;;8.30;99.90;;;;;;5032307;28;20497;-68
2021/05/20 02:09:32;;;;;;;0.70;0.52;;;8.30;99.90;;;;;;5031357;28;20049;-68
2021/05/20 02:12:37;;;;;;;0.70;0.50;;;8.30;99.90;;;;;;5031931;28;20401;-68
2021/05/20 02:15:41;;;;;;;1.95;0.50;;;8.30;99.90;;;;;;5032307;28;20045;-69
2021/05/20 02:18:45;;;;;;;3.42;0.50;;;8.30;99.90;;;;;;5032076;28;20045;-68
2021/05/20 02:21:49;;;;;;;1.48;0.77;;;8.30;99.90;;;;;;5031905;28;20033;-68
2021/05/20 02:24:53;;;;;;;5.28;0.55;;;8.20;99.90;;;;;;5031323;28;20041;-69
2021/05/20 02:27:57;;;;;;;1.83;0.60;;;8.20;99.90;;;;;;5032247;28;20397;-68
2021/05/20 02:31:01;;;;;;;0.40;0.40;;;8.20;99.90;;;;;;5031893;28;20509;-68
2021/05/20 02:34:06;;;;;;;1.48;0.80;;;8.20;99.90;;;;;;5011789;28;20042;-68
2021/05/20 02:37:10;;;;;;;2.03;0.98;;;8.10;99.90;;;;;;5012288;28;20042;-68
2021/05/20 02:40:16;;;;;;;0.68;0.68;;;8.00;99.90;;;;;;5009949;28;20321;-68
2021/05/20 02:43:20;;;;;;;0.70;0.70;;;8.00;99.90;;;;;;5011528;28;20034;-68
2021/05/20 02:46:24;;;;;;;2.15;0.70;;;7.90;99.90;;;;;;5021477;28;20050;-68
2021/05/20 02:49:28;;;;;;;1.70;0.70;;;7.90;99.90;;;;;;5031452;28;20025;-68
2021/05/20 02:52:32;;;;;;;1.33;0.77;;;7.90;99.90;;;;;;5031845;28;20037;-68
2021/05/20 02:55:37;;;;;;;0.98;0.70;;;7.90;99.90;;;;;;5011785;28;20041;-68
2021/05/20 02:58:41;;;;;;;1.58;1.23;;;7.90;99.90;;;;;;5011731;28;20053;-68
2021/05/20 03:01:47;;;;;;;5.18;1.35;;;7.80;99.90;;;;;;5013607;28;20049;-68
2021/05/20 03:04:51;;;;;;;3.13;1.58;;;7.80;99.90;;;;;;5023994;28;20033;-68
2021/05/20 03:07:56;;;;;;;5.82;1.95;;;7.80;99.90;;;;;;5011067;28;20069;-69
2021/05/20 03:11:00;;;;;;;4.90;1.40;;;7.80;99.90;;;;;;5021797;28;20033;-68
2021/05/20 03:14:04;;;;;;;6.22;2.75;;;7.70;99.90;;;;;;5031045;28;20044;-68
2021/05/20 03:17:11;;;;;;;4.55;2.80;;;7.60;99.90;;;;;;5031365;28;20050;-68
2021/05/20 03:20:17;;;;;;;4.85;2.13;;;7.60;99.90;;;;;;5017757;28;20048;-68
2021/05/20 03:23:21;;;;;;;3.67;2.05;;;7.60;99.90;;;;;;5029758;28;20042;-69
2021/05/20 03:26:25;;;;;;;6.75;4.15;;;7.60;99.90;;;;;;5007728;28;20250;-68
2021/05/20 03:29:29;;;;;;;22.90;4.45;;;7.50;99.90;;;;;;5030934;28;20029;-68
2021/05/20 03:32:34;;;;;;;6.90;4.47;;;7.50;99.90;;;;;;5030623;28;20606;-68
2021/05/20 03:35:38;;;;;;;11.02;6.70;;;7.50;99.90;;;;;;5027730;28;20045;-68
2021/05/20 03:38:42;;;;;;;7.75;5.15;;;7.50;99.90;;;;;;5010162;28;20522;-68
2021/05/20 03:41:46;;;;;;;6.93;4.28;;;7.50;99.90;;;;;;5010560;28;20045;-68
2021/05/20 03:44:50;;;;;;;8.88;4.43;;;7.40;99.90;;;;;;5010607;28;20045;-69
2021/05/20 03:47:54;;;;;;;8.65;4.68;;;7.30;99.90;;;;;;5012651;28;20048;-68
2021/05/20 03:50:58;;;;;;;11.55;7.30;;;7.30;99.90;;;;;;5030588;28;20049;-68
2021/05/20 03:54:03;;;;;;;7.30;4.35;;;7.20;99.90;;;;;;5029301;28;20040;-68
2021/05/20 03:57:07;;;;;;;6.32;2.58;;;7.30;99.90;;;;;;5030581;28;20053;-68
2021/05/20 04:00:12;;;;;;;5.03;2.22;;;7.30;99.90;;;;;;5030252;28;20069;-68
2021/05/20 04:03:26;;;;;;;7.03;2.22;;;7.40;99.90;;;;;;5030422;28;20033;-68
2021/05/20 04:06:30;;;;;;;5.55;1.95;;;7.40;99.90;;;;;;5030732;28;20044;-68
2021/05/20 04:09:35;;;;;;;5.10;1.63;;;7.40;99.90;;;;;;5029386;28;20033;-68
2021/05/20 04:12:39;;;;;;;4.10;1.55;;;7.40;99.90;;;;;;5030641;28;20068;-68
2021/05/20 04:15:43;;;;;;;7.20;1.90;;;7.50;99.90;;;;;;5030559;28;20069;-68
2021/05/20 04:18:47;;;;;;;4.53;1.85;;;7.50;99.90;;;;;;5030454;28;20046;-68
2021/05/20 04:21:52;;;;;;;3.60;1.75;;;7.50;99.90;;;;;;5029830;28;20041;-68
2021/05/20 04:24:56;;;;;;;6.07;2.50;;;7.60;99.90;;;;;;5029703;28;20109;-68
2021/05/20 04:28:00;;;;;;;3.55;1.83;;;7.60;99.90;;;;;;5030121;28;20041;-68
2021/05/20 04:31:04;;;;;;;4.18;1.80;;;7.60;99.90;;;;;;5029108;28;20049;-68
2021/05/20 04:34:08;;;;;;;4.72;1.95;;;7.60;99.90;;;;;;5029324;28;20041;-68
2021/05/20 04:37:12;;;;;;;5.03;2.20;;;7.70;99.90;;;;;;5028762;28;20048;-68
2021/05/20 04:40:16;;;;;;;2.95;1.58;;;8.20;99.90;;;;;;5028468;28;20043;-68
2021/05/20 04:43:20;;;;;;;2.03;1.33;;;11.10;99.90;;;;;;5028996;28;20045;-68
2021/05/20 04:46:24;;;;;;;1.52;1.00;;;14.00;99.90;;;;;;5024599;28;20432;-69
2021/05/20 04:49:28;;;;;;;1.55;0.85;;;16.10;99.90;;;;;;5009860;28;20049;-68
2021/05/20 04:52:33;;;;;;;0.65;0.50;;;17.70;99.90;;;;;;5015693;28;20524;-68
2021/05/20 04:55:37;;;;;;;1.33;0.85;;;18.40;99.90;;;;;;5016689;28;20045;-68
2021/05/20 04:58:42;;;;;;;1.65;0.95;;;19.30;99.90;;;;;;5025797;28;20044;-68
2021/05/20 05:01:46;;;;;;;3.15;0.80;;;19.60;99.90;;;;;;5034700;28;20044;-69
2021/05/20 05:04:50;;;;;;;2.38;1.40;;;19.70;99.90;;;;;;5045161;28;20400;-68
2021/05/20 05:07:55;;;;;;;1.80;0.73;;;20.10;99.90;;;;;;5044848;28;20496;-69
2021/05/20 05:10:59;;;;;;;2.30;0.80;;;20.70;99.90;;;;;;5032774;28;20506;-69
2021/05/20 05:14:03;;;;;;;1.83;0.80;;;20.70;99.90;;;;;;5033444;28;20392;-68
2021/05/20 05:17:07;;;;;;;1.88;1.27;;;20.70;99.90;;;;;;5013006;28;20554;-69
2021/05/20 05:20:12;;;;;;;1.30;0.70;;;20.50;99.90;;;;;;5014493;28;20040;-69
2021/05/20 05:23:16;;;;;;;1.15;0.70;;;18.90;99.90;;;;;;5015192;28;20053;-69
2021/05/20 05:26:23;;;;;;;3.03;0.80;;;17.00;99.90;;;;;;5015441;28;20400;-69
2021/05/20 05:29:28;;;;;;;2.70;0.80;;;16.20;99.90;;;;;;5012873;28;20559;-69
2021/05/20 05:32:33;;;;;;;2.10;0.80;;;14.90;99.90;;;;;;5012865;28;20137;-69
2021/05/20 05:35:37;;;;;;;2.22;1.30;;;14.70;99.90;;;;;;5022721;28;20452;-68
2021/05/20 05:38:41;;;;;;;3.30;1.50;;;14.40;99.90;;;;;;5021615;28;20059;-69
2021/05/20 05:41:45;;;;;;;2.40;1.27;;;14.60;99.90;;;;;;5024212;28;20033;-68
2021/05/20 05:44:49;;;;;;;2.70;1.42;;;15.70;99.90;;;;;;5039370;28;20068;-69
2021/05/20 05:47:52;;;;;;;4.85;1.35;;;17.00;99.90;;;;;;5015543;28;20049;-69
2021/05/20 05:50:58;;;;;;;5.43;1.25;;;19.10;99.90;;;;;;5032136;28;20056;-69
2021/05/20 05:54:03;;;;;;;1.42;0.80;;;20.50;99.90;;;;;;5031832;28;20113;-69
2021/05/20 05:57:08;;;;;;;2.15;0.80;;;21.50;99.90;;;;;;5031833;28;20048;-69
2021/05/20 06:00:13;;;;;;;2.03;0.75;;;22.30;99.80;;;;;;5023778;28;20044;-68
2021/05/20 06:03:20;;;;;;;3.03;0.73;;;22.90;99.00;;;;;;5035121;28;20036;-68
2021/05/20 06:06:24;;;;;;;3.22;0.57;;;23.20;97.60;;;;;;5031439;28;20040;-68
2021/05/20 06:09:29;;;;;;;2.40;0.65;;;23.10;98.30;;;;;;5017096;28;20037;-68
2021/05/20 06:12:34;;;;;;;0.88;0.60;;;23.50;98.00;;;;;;5011986;28;20045;-67
2021/05/20 06:15:38;;;;;;;1.90;0.50;;;23.70;97.60;;;;;;5012529;28;20052;-69
2021/05/20 06:18:45;;;;;;;2.88;0.65;;;24.00;97.50;;;;;;5031121;28;20044;-69
2021/05/20 06:21:49;;;;;;;2.03;0.52;;;22.00;96.60;;;;;;5031662;28;20143;-68
2021/05/20 06:24:53;;;;;;;1.40;0.63;;;21.90;97.60;;;;;;5030874;28;20033;-69
2021/05/20 06:27:58;;;;;;;0.90;0.50;;;18.80;99.40;;;;;;5031378;28;20116;-68
2021/05/20 06:31:03;;;;;;;4.18;0.70;;;20.00;99.90;;;;;;5031365;28;20045;-69
2021/05/20 06:34:07;;;;;;;2.33;0.85;;;20.70;99.20;;;;;;5024842;28;20373;-68
2021/05/20 06:37:12;;;;;;;4.15;0.50;;;21.80;98.90;;;;;;5031651;28;20044;-68
2021/05/20 06:40:17;;;;;;;7.53;0.70;;;22.80;98.20;;;;;;5030576;28;20068;-69
2021/05/20 06:43:21;;;;;;;2.05;0.50;;;21.40;96.90;;;;;;5031459;28;20044;-70
2021/05/20 06:46:25;;;;;;;4.07;0.70;;;20.00;97.70;;;;;;5031379;28;20495;-69
2021/05/20 06:49:31;;;;;;;2.33;0.52;;;21.00;98.60;;;;;;5027936;28;20056;-69
2021/05/20 06:52:35;;;;;;;0.75;0.40;;;21.30;97.80;;;;;;5031814;28;20052;-70
2021/05/20 06:55:39;;;;;;;2.85;0.40;;;21.40;97.80;;;;;;5031300;28;20040;-68
2021/05/20 07:02:05;;;;;;;1.65;0.80;;;18.10;99.90;;;;;;5030680;28;20100;-69
2021/05/20 07:05:09;;;;;;;1.60;0.40;;;17.40;99.90;;;;;;5030942;28;20044;-67
2021/05/20 07:08:13;;;;;;;3.40;0.68;;;17.60;99.90;;;;;;5013111;28;20114;-69
2021/05/20 07:11:18;;;;;;;1.60;0.63;;;18.00;99.90;;;;;;5024938;28;20052;-69
2021/05/20 07:14:22;;;;;;;2.35;0.68;;;19.40;99.90;;;;;;5031699;28;20040;-69
2021/05/20 07:17:26;;;;;;;2.60;0.60;;;20.10;99.90;;;;;;5035227;28;20052;-69
2021/05/20 07:20:30;;;;;;;3.45;0.60;;;20.20;99.90;;;;;;5038641;28;20052;-69
2021/05/20 07:23:36;;;;;;;4.43;0.90;;;20.00;99.50;;;;;;5050711;28;20035;-69
2021/05/20 07:26:40;;;;;;;3.00;0.70;;;20.70;99.70;;;;;;5048094;28;20036;-69
2021/05/20 07:29:44;;;;;;;3.40;0.80;;;21.90;98.30;;;;;;5019703;28;20053;-69
2021/05/20 07:32:48;;;;;;;6.22;0.90;;;22.60;96.30;;;;;;5031645;28;20036;-69
2021/05/20 07:35:52;;;;;;;4.35;0.52;;;23.90;96.80;;;;;;5033316;28;20057;-69
2021/05/20 07:38:59;;;;;;;2.78;1.17;;;22.30;96.70;;;;;;5050785;28;20055;-69
2021/05/20 07:42:05;;;;;;;1.15;0.65;;;22.20;95.40;;;;;;5050835;28;20039;-70
2021/05/20 07:45:11;;;;;;;0.73;0.60;;;23.90;96.00;;;;;;5036515;28;20052;-69
2021/05/20 07:48:15;;;;;;;4.35;0.60;;;24.10;94.80;;;;;;5035851;28;20113;-69
2021/05/20 07:51:19;;;;;;;1.40;0.70;;;26.10;93.50;;;;;;5019905;28;20040;-70
2021/05/20 07:54:24;;;;;;;1.95;0.60;;;23.80;92.20;;;;;;5027320;28;20175;-68
2021/05/20 07:57:28;;;;;;;2.08;0.55;;;24.50;93.40;;;;;;5036631;28;20052;-69
2021/05/20 08:00:34;;;;;;;1.92;0.70;;;27.00;91.80;;;;;;5045849;28;20048;-69
2021/05/20 08:04:14;;;;;;;2.20;0.80;;;25.10;92.20;;;;;;5050913;28;20048;-69
2021/05/20 08:13:22;;;;;;;0.50;0.40;;;26.50;92.70;;;;;;5031053;28;20054;-69
2021/05/20 08:16:27;;;;;;;2.92;0.60;;;24.20;92.50;;;;;;5010884;28;20045;-69
2021/05/20 08:19:31;;;;;;;2.60;0.55;;;24.80;91.80;;;;;;5011262;28;20053;-69
2021/05/20 08:22:37;;;;;;;2.20;0.73;;;23.90;93.10;;;;;;5013103;28;20049;-69
2021/05/20 08:25:41;;;;;;;1.77;0.70;;;25.20;92.70;;;;;;5019424;28;20052;-69
2021/05/20 08:28:45;;;;;;;1.90;0.68;;;25.60;91.40;;;;;;5031421;28;20490;-69
2021/05/20 08:31:50;;;;;;;2.97;0.68;;;27.10;90.20;;;;;;5005585;28;20527;-68
2021/05/20 08:34:54;;;;;;;1.30;0.60;;;26.40;85.90;;;;;;5034422;28;20044;-70
2021/05/20 08:37:58;;;;;;;3.17;0.60;;;27.30;85.60;;;;;;5033014;28;20044;-70
2021/05/20 08:41:02;;;;;;;1.10;0.57;;;28.60;85.40;;;;;;5014357;28;21079;-69
2021/05/20 08:44:16;;;;;;;1.98;0.60;;;30.20;82.80;;;;;;5013346;28;20057;-69
2021/05/20 08:47:22;;;;;;;3.22;0.70;;;31.80;78.90;;;;;;5013016;28;20037;-68
2021/05/20 08:50:28;;;;;;;0.80;0.50;;;31.80;71.90;;;;;;5022012;28;20041;-68
2021/05/20 08:53:32;;;;;;;1.50;1.02;;;31.30;71.40;;;;;;5019242;28;20060;-68
2021/05/20 08:56:37;;;;;;;2.42;1.13;;;30.80;70.80;;;;;;5014489;28;20041;-70
2021/05/20 08:59:41;;;;;;;3.20;0.90;;;31.60;70.30;;;;;;5030508;28;20128;-68
2021/05/20 09:02:45;;;;;;;2.45;0.80;;;32.40;69.10;;;;;;5034517;28;20039;-68
2021/05/20 09:05:50;;;;;;;1.77;0.95;;;33.20;63.00;;;;;;5029130;28;20060;-69
2021/05/20 09:08:54;;;;;;;1.13;0.70;;;34.20;63.80;;;;;;5019342;28;20045;-69
2021/05/20 09:11:58;;;;;;;1.35;0.65;;;34.50;60.20;;;;;;5017909;28;20044;-69
2021/05/20 09:15:15;;;;;;;1.85;0.80;;;29.80;60.10;;;;;;5022565;28;20394;-69
2021/05/20 09:18:26;;;;;;;1.20;0.55;;;30.80;62.30;;;;;;5024663;28;20151;-69
2021/05/20 09:21:30;;;;;;;;;;;33.20;59.10;;;;;;5028142;28;20041;-69
2021/05/20 09:24:50;;;;;;;1.50;0.50;;;35.00;56.80;;;;;;5029437;28;19912;-69
2021/05/20 09:27:54;;;;;;;0.32;0.20;;;35.50;55.60;;;;;;5030444;28;20040;-68
2021/05/20 09:30:59;;;;;;;1.10;0.20;;;35.80;58.20;;;;;;5018622;28;20060;-67
2021/05/20 09:34:11;;;;;;;0.70;0.40;;;37.80;54.50;;;;;;5033684;28;20048;-67
2021/05/20 09:37:16;;;;;;;2.25;0.50;;;38.80;54.70;;;;;;5023267;28;20408;-67
2021/05/20 09:40:24;;;;;;;1.20;0.68;;;39.10;53.20;;;;;;5017026;28;20412;-67
2021/05/20 09:43:33;;;;;;;0.90;0.32;;;39.60;53.60;;;;;;5013819;28;20052;-65
2021/05/20 09:46:43;;;;;;;1.10;0.30;;;40.30;52.70;;;;;;5049312;28;20491;-66
2021/05/20 09:50:03;;;;;;;2.67;0.40;;;40.20;49.70;;;;;;5030388;28;20044;-66
2021/05/20 09:53:17;;;;;;;0.60;0.35;;;39.80;49.50;;;;;;5031872;28;20048;-66
2021/05/20 09:56:39;;;;;;;0.32;0.20;;;40.40;48.70;;;;;;5030761;28;20056;-66
2021/05/20 09:59:43;;;;;;;1.08;0.20;;;41.20;46.00;;;;;;5027525;28;20053;-66
2021/05/20 10:02:58;;;;;;;0.50;0.20;;;41.00;47.30;;;;;;5039531;28;20045;-66
2021/05/20 10:06:04;;;;;;;0.22;0.10;;;41.20;47.10;;;;;;5030739;28;20071;-66
2021/05/20 10:09:10;;;;;;;2.10;0.20;;;38.60;45.80;;;;;;5027541;28;20049;-66
2021/05/20 10:12:14;;;;;;;0.30;0.30;;;40.10;47.40;;;;;;5032259;28;20064;-66
2021/05/20 10:15:21;;;;;;;1.92;0.20;;;41.20;46.10;;;;;;5008444;28;20388;-65
2021/05/20 10:18:29;;;;;;;1.92;0.20;;;41.80;44.10;;;;;;5014385;28;20056;-66
2021/05/20 10:21:33;;;;;;;0.40;0.10;;;41.50;44.50;;;;;;5016242;28;20120;-66
2021/05/20 10:24:39;;;;;;;0.45;0.20;;;41.10;43.80;;;;;;5019091;28;20041;-67
2021/05/20 10:27:45;;;;;;;1.92;0.40;;;41.50;44.10;;;;;;5037951;28;20048;-66
2021/05/20 10:30:52;;;;;;;0.75;0.30;;;37.90;41.20;;;;;;5025957;28;20052;-66
2021/05/20 10:34:04;;;;;;;1.55;0.55;;;37.80;46.10;;;;;;5035232;28;20056;-66
2021/05/20 10:37:08;;;;;;;0.30;0.20;;;38.50;44.90;;;;;;5040699;28;20045;-65
2021/05/20 10:40:28;;;;;;;0.52;0.20;;;34.40;44.50;;;;;;5029582;28;20503;-65
2021/05/20 10:43:32;;;;;;;;;;;36.40;46.70;;;;;;5037183;28;20048;-65
2021/05/20 10:46:57;;;;;;;0.32;0.17;;;37.20;44.20;;;;;;5040404;28;19908;-66
2021/05/20 10:50:02;;;;;;;0.35;0.20;;;38.50;45.40;;;;;;5025555;28;20049;-65
2021/05/20 10:53:07;;;;;;;3.33;0.30;;;39.30;42.60;;;;;;5031324;28;20433;-66
2021/05/20 10:56:15;;;;;;;1.10;0.43;;;39.60;41.80;;;;;;5021510;28;20052;-65
2021/05/20 10:59:35;;;;;;;1.35;0.40;;;39.50;42.60;;;;;;5031338;28;20049;-65
2021/05/20 11:02:50;;;;;;;0.85;0.30;;;40.30;42.80;;;;;;5031403;28;20381;-66
2021/05/20 11:05:55;;;;;;;0.63;0.40;;;41.00;41.00;;;;;;5018247;28;20048;-65
2021/05/20 11:08:59;;;;;;;2.08;0.40;;;41.00;41.90;;;;;;5027233;28;20036;-65
2021/05/20 11:12:04;;;;;;;0.43;0.30;;;40.60;42.90;;;;;;5029669;28;20041;-66
2021/05/20 11:15:17;;;;;;;1.67;0.40;;;40.10;44.70;;;;;;5030634;28;20077;-66
2021/05/20 11:18:33;;;;;;;1.13;0.40;;;36.90;45.00;;;;;;5028035;28;20392;-66
2021/05/20 11:22:02;;;;;;;2.17;0.80;;;38.30;45.00;;;;;;5026086;28;20117;-64
2021/05/20 11:25:10;;;;;;;0.90;0.47;;;38.70;46.00;;;;;;5029172;28;20040;-65
2021/05/20 11:28:17;;;;;;;1.63;0.32;;;38.70;44.80;;;;;;5017534;28;20028;-66
2021/05/20 11:31:23;;;;;;;0.80;0.40;;;38.50;45.70;;;;;;5040672;28;20507;-65
2021/05/20 11:37:45;;;;;;;1.77;0.50;;;36.10;45.80;;;;;;5041418;28;20119;-64
2021/05/20 11:40:49;;;;;;;1.05;0.40;;;35.90;50.10;;;;;;5030725;28;20040;-67
2021/05/20 11:44:07;;;;;;;1.75;0.47;;;35.00;44.40;;;;;;5023352;28;20045;-65
2021/05/20 11:47:13;;;;;;;0.93;0.50;;;32.60;48.20;;;;;;5009661;28;20044;-65
2021/05/20 11:50:18;;;;;;;1.08;0.40;;;30.90;49.20;;;;;;5021720;28;20045;-66
2021/05/20 11:53:22;;;;;;;0.65;0.30;;;31.50;50.90;;;;;;5029236;28;20048;-66
2021/05/20 11:56:38;;;;;;;0.45;0.20;;;33.10;50.00;;;;;;5030386;28;20495;-66
2021/05/20 11:59:47;;;;;;;3.17;0.40;;;33.50;46.20;;;;;;5016864;28;20045;-66
2021/05/20 12:02:55;;;;;;;0.22;0.22;;;29.80;46.50;;;;;;5028806;28;20069;-66
2021/05/20 12:06:00;;;;;;;1.30;0.55;;;30.70;49.40;;;;;;5004283;28;20040;-67
2021/05/20 12:09:09;;;;;;;0.57;0.43;;;31.50;47.60;;;;;;5023066;28;20044;-66
2021/05/20 12:12:16;;;;;;;0.93;0.30;;;30.80;50.10;;;;;;5028830;28;20040;-66
2021/05/20 12:15:22;;;;;;;0.98;0.30;;;31.70;50.90;;;;;;5013267;28;20499;-66
2021/05/20 12:18:26;;;;;;;1.00;0.50;;;32.90;48.50;;;;;;5028560;28;20044;-67
2021/05/20 12:21:30;;;;;;;0.93;0.30;;;33.50;47.10;;;;;;5028352;28;20056;-66
2021/05/20 12:24:37;;;;;;;1.27;0.40;;;33.40;48.30;;;;;;5016369;28;20053;-67
2021/05/20 12:27:43;;;;;;;1.25;0.30;;;33.20;47.70;;;;;;5012090;28;20040;-67
2021/05/20 12:30:47;;;;;;;4.22;0.40;;;32.70;47.60;;;;;;5021581;28;20041;-66
2021/05/20 12:33:51;;;;;;;2.00;0.57;;;31.80;48.00;;;;;;5026482;28;20048;-67
2021/05/20 12:37:05;;;;;;;3.38;1.70;;;32.00;46.90;;;;;;5029937;28;20044;-66
2021/05/20 12:40:27;;;;;;;1.58;0.90;;;31.20;49.60;;;;;;5016539;28;20040;-64
2021/05/20 12:43:39;;;;;;;1.80;0.60;;;30.30;48.80;;;;;;5010195;28;20052;-66
2021/05/20 12:46:43;;;;;;;;;;;30.00;48.60;;;;;;5005087;28;20029;-66
2021/05/20 12:49:57;;;;;;;7.47;4.25;;;30.70;49.80;;;;;;5025787;28;20283;-66
2021/05/20 12:53:03;;;;;;;11.35;4.32;;;31.30;48.20;;;;;;5018920;28;20056;-66
2021/05/20 12:56:31;;;;;;;5.60;4.80;;;32.30;48.70;;;;;;5028348;28;20542;-65
2021/05/20 12:59:38;;;;;;;1.73;0.70;;;32.60;48.40;;;;;;5011648;28;20065;-66
2021/05/20 13:02:42;;;;;;;2.97;0.50;;;32.10;48.40;;;;;;4998011;28;20048;-65
2021/05/20 13:05:51;;;;;;;0.82;0.30;;;30.90;50.00;;;;;;5018852;28;20523;-64
2021/05/20 13:09:13;;;;;;;3.17;0.35;;;28.00;50.90;;;;;;5020020;28;20041;-64
2021/05/20 13:12:19;;;;;;;2.63;0.50;;;25.70;52.60;;;;;;5033161;28;20041;-66
2021/05/20 13:15:23;;;;;;;0.95;0.43;;;24.90;54.60;;;;;;5028294;28;20048;-64
2021/05/20 13:22:26;;;;;;;1.88;0.30;;;23.10;55.70;;;;;;5032772;28;20052;-64
2021/05/20 13:25:12;;;;;;;0.90;0.32;;;22.60;56.30;;;;;;5032718;28;20037;-66
2021/05/20 13:28:18;;;;;;;3.42;0.40;;;21.90;57.30;;;;;;5033365;28;20396;-66
2021/05/20 13:31:22;;;;;;;2.45;0.40;;;22.20;58.50;;;;;;5032968;28;20041;-68
2021/05/20 13:34:27;;;;;;;6.57;0.50;;;22.60;57.40;;;;;;5009095;28;20048;-65
2021/05/20 13:37:31;;;;;;;1.02;0.68;;;22.60;58.60;;;;;;5032673;28;20036;-64
2021/05/20 13:40:36;;;;;;;1.40;0.40;;;22.40;57.70;;;;;;5032841;28;20052;-67
2021/05/20 13:43:40;;;;;;;0.60;0.40;;;22.60;58.40;;;;;;5032299;28;20052;-68
2021/05/20 13:46:45;;;;;;;0.50;0.20;;;23.30;57.60;;;;;;5022955;28;20035;-67
2021/05/20 13:49:48;;;;;;;1.20;0.40;;;23.40;58.00;;;;;;5031560;28;20048;-67
2021/05/20 13:52:55;;;;;;;1.08;0.50;;;23.60;56.30;;;;;;5032137;28;20396;-65
2021/05/20 13:55:59;;;;;;;4.25;0.60;;;23.50;57.50;;;;;;5032923;28;20511;-67
2021/05/20 13:59:03;;;;;;;4.63;0.68;;;24.00;56.60;;;;;;5032411;28;20048;-66
2021/05/20 14:02:11;;;;;;;1.95;0.75;;;24.20;55.90;;;;;;5022684;28;20048;-68
2021/05/20 14:05:16;;;;;;;5.85;2.97;;;24.70;57.70;;;;;;5020723;28;20048;-66
2021/05/20 14:08:20;;;;;;;1.25;0.60;;;25.00;56.90;;;;;;5031687;28;20041;-67
2021/05/20 14:11:25;;;;;;;5.65;1.70;;;25.20;55.80;;;;;;5031791;28;20044;-67
2021/05/20 14:14:31;;;;;;;5.18;2.63;;;25.30;57.80;;;;;;5032193;28;20045;-66
2021/05/20 14:17:36;;;;;;;6.03;3.30;;;25.40;54.60;;;;;;5020608;28;20036;-67
2021/05/20 14:20:41;;;;;;;5.03;3.72;;;25.30;57.10;;;;;;5031911;28;20040;-66
2021/05/20 14:23:45;;;;;;;13.00;7.90;;;25.40;57.40;;;;;;5019381;28;20044;-66
2021/05/20 14:26:49;;;;;;;5.63;1.75;;;25.40;56.80;;;;;;5032434;28;20049;-67
2021/05/20 14:29:53;;;;;;;2.47;0.70;;;25.40;56.70;;;;;;5019681;28;20040;-66
2021/05/20 14:32:57;;;;;;;2.60;0.52;;;25.30;58.60;;;;;;5019660;28;20052;-66
2021/05/20 14:36:01;;;;;;;2.28;0.80;;;23.20;56.90;;;;;;5031902;28;20049;-67
2021/05/20 14:39:06;;;;;;;1.30;0.60;;;22.50;59.50;;;;;;5031403;28;20423;-65
2021/05/20 14:42:10;;;;;;;5.28;0.93;;;22.30;61.70;;;;;;5030944;28;20535;-67
2021/05/20 14:45:14;;;;;;;4.25;0.80;;;22.90;60.30;;;;;;5032020;28;20056;-66
2021/05/20 14:48:19;;;;;;;1.92;0.68;;;22.10;63.50;;;;;;5019437;28;20040;-65
2021/05/20 14:51:27;;;;;;;3.80;0.60;;;21.00;63.80;;;;;;5018716;28;20535;-65
2021/05/20 14:54:34;;;;;;;1.67;0.70;;;20.70;64.70;;;;;;5030653;28;20070;-66
2021/05/20 15:07:44;;;;;;;2.72;0.60;;;20.30;63.80;;;;;;5031652;28;20032;-66
2021/05/20 15:11:05;;;;;;;1.25;0.50;;;20.10;66.70;;;;;;5031287;28;20056;-66
2021/05/20 15:14:23;;;;;;;1.13;0.52;;;20.40;68.00;;;;;;5030889;28;20044;-66
2021/05/20 15:17:34;;;;;;;3.35;0.40;;;20.90;65.70;;;;;;5031505;28;20041;-66
2021/05/20 15:20:38;;;;;;;0.90;0.45;;;20.60;65.80;;;;;;5030793;28;20072;-66
2021/05/20 15:23:42;;;;;;;3.40;0.60;;;21.10;65.80;;;;;;5017532;28;20044;-66
2021/05/20 15:26:47;;;;;;;1.15;0.70;;;21.20;64.60;;;;;;5031246;28;20048;-66
2021/05/20 15:29:51;;;;;;;1.50;0.70;;;21.70;65.40;;;;;;5030942;28;20056;-66
2021/05/20 15:32:56;;;;;;;2.13;0.60;;;21.70;64.30;;;;;;5030841;28;20052;-66
2021/05/20 15:36:02;;;;;;;1.45;0.55;;;21.60;63.70;;;;;;5031254;28;20048;-66
2021/05/20 15:39:06;;;;;;;4.13;0.70;;;21.30;65.10;;;;;;5030225;28;20047;-65
2021/05/20 15:42:10;;;;;;;2.45;0.52;;;20.80;67.20;;;;;;5030059;28;20056;-66
2021/05/20 15:45:16;;;;;;;0.80;0.60;;;20.90;67.50;;;;;;5030790;28;20068;-66
2021/05/20 15:51:43;;;;;;;1.40;0.57;;;21.10;65.30;;;;;;5024271;28;20053;-66
2021/05/20 15:54:48;;;;;;;1.33;0.40;;;20.90;66.10;;;;;;5015544;28;20048;-66
2021/05/20 15:57:53;;;;;;;2.60;0.50;;;20.50;67.90;;;;;;5028464;28;20057;-66
2021/05/20 16:00:59;;;;;;;2.70;0.60;;;20.40;67.50;;;;;;5028277;28;20044;-66
2021/05/20 16:04:04;;;;;;;5.88;0.57;;;20.20;68.40;;;;;;5035588;28;20044;-66
2021/05/20 16:07:31;;;;;;;9.57;0.65;;;20.20;69.40;;;;;;5019123;28;20044;-66
2021/05/20 16:10:53;;;;;;;1.30;0.57;;;20.20;68.90;;;;;;5025206;28;20044;-66
2021/05/20 16:14:35;;;;;;;1.27;0.52;;;20.10;69.70;;;;;;5009761;28;20523;-66
2021/05/20 16:17:29;;;;;;;2.83;0.77;;;20.10;70.10;;;;;;5019249;28;20426;-66
2021/05/20 16:20:34;;;;;;;2.70;0.65;;;20.00;66.90;;;;;;5029459;28;20048;-66
2021/05/20 16:24:00;;;;;;;4.85;0.80;;;20.50;68.40;;;;;;5008978;28;20049;-66
2021/05/20 16:27:35;;;;;;;3.60;0.45;;;20.50;68.00;;;;;;5010327;28;20053;-65
2021/05/20 16:37:23;;;;;;;1.10;0.70;;;20.70;69.20;;;;;;5018299;28;20040;-67
2021/05/20 16:40:27;;;;;;;1.88;0.70;;;21.10;69.90;;;;;;5027544;28;20052;-66
2021/05/20 16:43:31;;;;;;;1.85;0.60;;;21.50;70.00;;;;;;5025380;28;20045;-66
2021/05/20 16:46:35;;;;;;;1.42;0.80;;;21.80;67.40;;;;;;5025305;28;20507;-66
2021/05/20 16:49:40;;;;;;;3.45;1.38;;;21.90;67.50;;;;;;5025539;28;20045;-66
2021/05/20 16:52:46;;;;;;;0.93;0.60;;;22.10;66.80;;;;;;5023251;28;20053;-65